Time;durP1;ratioP1;P1;durP2;ratioP2;P2;SDS_P1;SDS_P2;PMS_P1;PMS_P2;Temp;Humidity;BMP_temperature;BMP_pressure;BME280_temperature;BME280_humidity;BME280_pressure;Samples;Min_cycle;Max_cycle;Signal;HPM_P1;HPM_P2
2022/08/30 00:02:18;;;;;;;11.35;5.90;;;;;;;18.04;69.64;98507.34;7395188;19;20025;-71
2022/08/30 00:04:45;;;;;;;8.23;5.57;;;;;;;18.01;70.03;98501.53;7390941;19;20035;-72
2022/08/30 00:07:12;;;;;;;6.78;5.57;;;;;;;17.95;70.46;98509.34;7386286;19;20114;-71
2022/08/30 00:09:38;;;;;;;6.90;5.55;;;;;;;17.84;70.89;98496.53;7394391;19;20011;-71
2022/08/30 00:12:05;;;;;;;10.95;6.30;;;;;;;17.77;71.29;98506.34;7393596;19;20025;-71
2022/08/30 00:14:32;;;;;;;8.00;5.85;;;;;;;17.67;71.67;98504.06;7392012;19;20026;-72
2022/08/30 00:16:59;;;;;;;8.02;6.03;;;;;;;17.55;71.98;98493.09;7393020;19;20022;-71
2022/08/30 00:19:26;;;;;;;9.10;6.15;;;;;;;17.53;71.92;98499.66;7394236;19;20014;-70
2022/08/30 00:21:53;;;;;;;6.57;5.43;;;;;;;17.50;72.12;98502.72;7388582;19;20035;-71
2022/08/30 00:24:19;;;;;;;8.18;6.05;;;;;;;17.46;72.39;98499.63;7390456;19;20030;-71
2022/08/30 00:26:46;;;;;;;13.27;6.13;;;;;;;17.41;72.80;98504.75;7387818;19;20409;-71
2022/08/30 00:29:13;;;;;;;8.30;5.38;;;;;;;17.35;72.90;98502.81;7390378;19;20103;-71
2022/08/30 00:31:40;;;;;;;12.63;5.57;;;;;;;17.33;73.08;98510.25;7394862;19;20512;-70
2022/08/30 00:34:07;;;;;;;7.93;6.00;;;;;;;17.29;73.33;98503.63;7392692;19;20010;-70
2022/08/30 00:36:33;;;;;;;11.27;6.68;;;;;;;17.29;73.24;98514.31;7389394;19;20021;-72
2022/08/30 00:39:00;;;;;;;9.27;5.63;;;;;;;17.38;72.46;98501.59;7388026;19;20014;-72
2022/08/30 00:41:27;;;;;;;9.38;5.95;;;;;;;17.37;71.88;98514.16;7389810;19;20010;-72
2022/08/30 00:43:54;;;;;;;8.25;5.55;;;;;;;17.24;71.66;98516.75;7392291;19;20351;-71
2022/08/30 00:46:20;;;;;;;7.72;6.35;;;;;;;17.18;71.61;98517.53;7391125;19;20033;-71
2022/08/30 00:48:48;;;;;;;9.82;6.03;;;;;;;17.15;71.74;98517.94;7393203;19;20022;-72
2022/08/30 00:51:15;;;;;;;9.90;5.70;;;;;;;17.14;72.09;98519.78;7390108;19;20010;-71
2022/08/30 00:53:47;;;;;;;8.82;6.03;;;;;;;17.11;72.47;98515.66;7389028;19;20022;-72
2022/08/30 00:56:14;;;;;;;7.55;5.75;;;;;;;17.15;72.40;98520.59;7384613;19;20353;-70
2022/08/30 00:58:45;;;;;;;9.30;6.13;;;;;;;17.15;72.47;98517.94;7389750;19;20036;-70
2022/08/30 01:01:12;;;;;;;8.35;5.70;;;;;;;17.11;72.40;98517.47;7388380;19;20019;-72
2022/08/30 01:03:40;;;;;;;11.55;6.03;;;;;;;17.17;72.10;98518.53;7390128;19;20086;-72
2022/08/30 01:06:06;;;;;;;8.93;6.18;;;;;;;17.21;71.75;98515.28;7389239;19;20014;-72
2022/08/30 01:08:34;;;;;;;6.05;5.22;;;;;;;17.14;72.25;98519.78;7391051;19;20010;-71
2022/08/30 01:11:02;;;;;;;7.15;5.45;;;;;;;17.18;72.32;98522.88;7390167;19;20358;-71
2022/08/30 01:13:29;;;;;;;8.52;6.00;;;;;;;17.15;71.75;98518.75;7385094;19;20011;-71
2022/08/30 01:15:58;;;;;;;7.90;6.00;;;;;;;17.16;72.02;98519.56;7388076;19;20018;-71
2022/08/30 01:18:26;;;;;;;7.22;5.82;;;;;;;17.09;71.76;98519.53;7387760;19;20035;-71
2022/08/30 01:21:00;;;;;;;10.80;5.65;;;;;;;17.05;71.99;98515.59;7390942;19;20034;-71
2022/08/30 01:23:27;;;;;;;7.28;5.97;;;;;;;16.92;72.22;98520.81;7389313;19;20014;-71
2022/08/30 01:25:55;;;;;;;6.97;5.75;;;;;;;16.84;72.49;98511.09;7386916;19;20018;-71
2022/08/30 01:28:24;;;;;;;8.38;6.25;;;;;;;16.92;72.72;98518.97;7384534;19;20477;-71
2022/08/30 01:30:51;;;;;;;9.18;6.78;;;;;;;16.83;72.93;98514.78;7385219;19;20014;-69
2022/08/30 01:33:20;;;;;;;11.40;6.25;;;;;;;16.86;72.93;98517.09;7389807;19;20014;-71
2022/08/30 01:35:59;;;;;;;10.13;6.00;;;;;;;16.84;72.89;98516.44;7391811;19;20018;-69
2022/08/30 01:38:31;;;;;;;8.73;5.90;;;;;;;16.82;72.79;98511.28;7388934;19;20022;-72
2022/08/30 01:41:14;;;;;;;9.43;6.35;;;;;;;16.81;72.73;98511.47;7390001;19;20015;-71
2022/08/30 01:43:41;;;;;;;7.47;6.03;;;;;;;16.85;72.84;98518.06;7390540;19;20018;-70
2022/08/30 01:46:10;;;;;;;7.95;6.35;;;;;;;16.87;72.67;98510.69;7385919;19;20026;-72
2022/08/30 01:48:39;;;;;;;10.25;6.20;;;;;;;16.87;73.27;98514.19;7385247;19;20402;-71
2022/08/30 01:51:09;;;;;;;7.80;6.13;;;;;;;16.91;73.16;98511.97;7385902;19;20014;-72
2022/08/30 01:53:36;;;;;;;7.85;6.18;;;;;;;16.94;73.37;98519.63;7388077;19;20010;-71
2022/08/30 01:56:04;;;;;;;8.13;6.93;;;;;;;16.85;73.74;98524.28;7387701;19;20023;-71
2022/08/30 01:58:30;;;;;;;7.07;6.10;;;;;;;16.86;73.39;98530.44;7388542;19;20020;-70
2022/08/30 02:00:58;;;;;;;8.23;5.75;;;;;;;16.82;72.69;98518.47;7387730;19;20035;-71
2022/08/30 02:03:29;;;;;;;7.35;5.80;;;;;;;16.80;72.72;98520.53;7382824;19;20057;-70
2022/08/30 02:05:56;;;;;;;9.18;6.43;;;;;;;16.76;73.39;98527.22;7389050;19;20186;-70
2022/08/30 02:08:22;;;;;;;8.32;6.45;;;;;;;16.67;73.80;98534.56;7388434;19;20022;-70
2022/08/30 02:10:50;;;;;;;8.18;6.20;;;;;;;16.59;73.79;98524.81;7389100;19;20014;-70
2022/08/30 02:13:16;;;;;;;9.18;6.30;;;;;;;16.57;74.00;98518.84;7390862;19;20006;-70
2022/08/30 02:15:43;;;;;;;8.35;6.65;;;;;;;16.44;75.43;98526.72;7387741;19;20020;-71
2022/08/30 02:18:10;;;;;;;10.48;7.47;;;;;;;16.40;75.21;98525.44;7386118;19;20015;-71
2022/08/30 02:20:38;;;;;;;10.90;6.82;;;;;;;16.37;75.72;98523.97;7384093;19;20019;-71
2022/08/30 02:23:05;;;;;;;10.25;7.07;;;;;;;16.36;75.27;98524.16;7387917;19;20014;-71
2022/08/30 02:25:32;;;;;;;11.63;7.47;;;;;;;16.32;75.23;98521.03;7389000;19;20018;-71
2022/08/30 02:27:59;;;;;;;10.13;6.97;;;;;;;16.20;75.64;98523.38;7386571;19;20351;-71
2022/08/30 02:30:26;;;;;;;13.48;6.65;;;;;;;16.06;76.01;98516.25;7390626;19;20010;-71
2022/08/30 02:32:53;;;;;;;10.75;7.45;;;;;;;16.00;75.85;98508.97;7389623;19;20369;-72
2022/08/30 02:35:20;;;;;;;12.32;7.65;;;;;;;15.81;76.32;98513.06;7385165;19;20013;-72
2022/08/30 02:37:47;;;;;;;12.75;8.23;;;;;;;15.69;77.20;98506.53;7382298;19;20093;-71
2022/08/30 02:40:14;;;;;;;12.45;9.73;;;;;;;15.63;78.23;98513.41;7389202;19;20022;-71
2022/08/30 02:42:41;;;;;;;15.65;9.25;;;;;;;15.63;79.04;98504.56;7386571;19;20070;-72
2022/08/30 02:45:08;;;;;;;16.05;9.48;;;;;;;15.63;79.34;98502.72;7388873;19;20013;-71
2022/08/30 02:47:35;;;;;;;12.18;10.25;;;;;;;15.63;79.63;98496.56;7384513;19;20022;-72
2022/08/30 02:50:07;;;;;;;11.32;9.68;;;;;;;15.68;79.72;98495.00;7386617;19;20011;-71
2022/08/30 02:52:34;;;;;;;;;;;;;;;15.70;79.87;98487.69;7384918;19;20014;-71
2022/08/30 02:55:02;;;;;;;16.27;9.35;;;;;;;15.64;80.35;98493.72;7383902;19;20014;-71
2022/08/30 02:57:29;;;;;;;12.45;10.23;;;;;;;15.76;80.27;98497.59;7381737;19;20010;-71
2022/08/30 02:59:56;;;;;;;15.13;11.23;;;;;;;15.78;80.69;98502.75;7388398;19;20010;-71
2022/08/30 03:02:23;;;;;;;15.73;9.75;;;;;;;15.90;80.39;98503.91;7388076;19;20085;-71
2022/08/30 03:04:50;;;;;;;14.70;9.43;;;;;;;15.90;80.45;98505.75;7385913;19;20015;-72
2022/08/30 03:07:18;;;;;;;14.25;9.82;;;;;;;15.88;80.60;98507.81;7386347;19;20018;-71
2022/08/30 03:09:45;;;;;;;14.88;10.63;;;;;;;15.75;80.49;98503.94;7380531;19;20021;-71
2022/08/30 03:12:12;;;;;;;11.70;9.00;;;;;;;15.75;80.43;98501.28;7383158;19;20017;-71
2022/08/30 03:14:39;;;;;;;10.43;8.68;;;;;;;15.77;80.38;98507.28;7386982;19;20488;-70
2022/08/30 03:17:07;;;;;;;10.73;8.70;;;;;;;15.76;80.79;98499.44;7385095;19;20485;-71
2022/08/30 03:19:41;;;;;;;17.17;9.93;;;;;;;15.78;80.82;98492.91;7385804;19;20019;-70
2022/08/30 03:22:09;;;;;;;15.60;9.68;;;;;;;15.82;80.71;98488.00;7385410;19;20070;-70
2022/08/30 03:24:36;;;;;;;15.77;9.80;;;;;;;15.78;80.87;98484.91;7386365;19;20030;-70
2022/08/30 03:27:03;;;;;;;12.05;9.15;;;;;;;15.83;80.85;98488.88;7379205;19;20011;-71
2022/08/30 03:29:30;;;;;;;12.65;9.75;;;;;;;15.84;80.69;98482.50;7386966;19;20011;-70
2022/08/30 03:31:57;;;;;;;11.20;9.15;;;;;;;15.86;80.81;98477.81;7387436;19;20011;-71
2022/08/30 03:34:25;;;;;;;15.35;10.43;;;;;;;15.84;80.82;98479.84;7385515;19;20014;-71
2022/08/30 03:36:53;;;;;;;12.95;9.52;;;;;;;15.83;80.52;98475.53;7383013;19;20490;-71
2022/08/30 03:39:21;;;;;;;12.80;8.82;;;;;;;15.84;80.56;98482.50;7385741;19;20010;-71
2022/08/30 03:41:48;;;;;;;16.83;8.73;;;;;;;15.80;80.35;98482.06;7383388;19;22858;-71
2022/08/30 03:44:15;;;;;;;11.40;8.63;;;;;;;15.82;80.62;98490.69;7383566;19;20038;-70
2022/08/30 03:46:42;;;;;;;13.05;9.65;;;;;;;15.76;80.46;98486.09;7386251;19;20010;-71
2022/08/30 03:49:08;;;;;;;14.32;9.57;;;;;;;15.65;80.58;98490.03;7381478;19;20015;-70
2022/08/30 03:51:36;;;;;;;12.38;9.48;;;;;;;15.58;80.55;98478.44;7386355;19;20028;-70
2022/08/30 03:54:03;;;;;;;13.07;8.68;;;;;;;15.60;80.43;98481.78;7386963;19;20041;-71
2022/08/30 03:56:30;;;;;;;11.00;8.18;;;;;;;15.61;80.28;98485.25;7384263;19;20015;-70
2022/08/30 03:58:56;;;;;;;12.35;9.32;;;;;;;15.45;81.69;98487.09;7383200;19;20015;-72
2022/08/30 04:01:23;;;;;;;14.82;9.63;;;;;;;15.42;81.22;98489.31;7381941;19;20024;-71
2022/08/30 04:03:50;;;;;;;10.65;9.00;;;;;;;15.41;81.32;98483.16;7385375;19;20011;-71
2022/08/30 04:06:17;;;;;;;15.95;9.90;;;;;;;15.42;80.96;98495.47;7384508;19;20019;-72
2022/08/30 04:08:44;;;;;;;15.18;9.82;;;;;;;15.41;81.42;98495.66;7382805;19;20022;-71
2022/08/30 04:11:13;;;;;;;11.63;9.25;;;;;;;15.35;81.47;98495.38;7382222;19;20014;-71
2022/08/30 04:13:41;;;;;;;12.85;9.68;;;;;;;15.28;81.66;98499.78;7383825;19;20029;-71
2022/08/30 04:16:08;;;;;;;18.70;9.85;;;;;;;15.29;81.55;98501.44;7382467;19;20006;-71
2022/08/30 04:18:35;;;;;;;14.18;9.88;;;;;;;15.28;81.69;98489.13;7381617;19;20477;-71
2022/08/30 04:21:03;;;;;;;13.82;9.82;;;;;;;15.29;81.62;98493.44;7390452;19;20485;-71
2022/08/30 04:23:29;;;;;;;13.55;10.30;;;;;;;15.33;81.95;98485.91;7391908;19;20029;-72
2022/08/30 04:25:56;;;;;;;12.63;9.45;;;;;;;15.39;82.00;98487.03;7388522;19;20027;-71
2022/08/30 04:28:23;;;;;;;12.50;9.27;;;;;;;15.40;81.89;98489.47;7388115;19;20022;-71
2022/08/30 04:30:49;;;;;;;14.70;9.63;;;;;;;15.37;81.61;98485.34;7391044;19;20025;-71
2022/08/30 04:33:16;;;;;;;13.02;9.52;;;;;;;15.33;81.90;98491.25;7388848;19;20078;-71
2022/08/30 04:35:45;;;;;;;14.55;8.98;;;;;;;15.37;81.65;98487.19;7390115;19;20383;-70
2022/08/30 04:38:13;;;;;;;13.52;9.50;;;;;;;15.33;81.86;98497.41;7388589;19;20345;-71
2022/08/30 04:40:41;;;;;;;17.08;10.52;;;;;;;15.44;81.69;98500.63;7390564;19;20015;-72
2022/08/30 04:43:11;;;;;;;11.23;9.50;;;;;;;15.54;81.67;98496.66;7390079;19;21984;-71
2022/08/30 04:45:39;;;;;;;13.20;9.32;;;;;;;15.48;81.55;98497.41;7390638;19;20078;-72
2022/08/30 04:48:07;;;;;;;16.33;10.32;;;;;;;15.39;81.47;98506.50;7388485;19;20441;-71
2022/08/30 04:50:33;;;;;;;15.98;10.57;;;;;;;15.24;81.50;98503.81;7387829;19;20011;-71
2022/08/30 04:53:11;;;;;;;11.85;10.43;;;;;;;15.07;82.32;98510.34;7389073;19;20048;-70
2022/08/30 04:55:42;;;;;;;13.68;10.93;;;;;;;14.92;82.69;98508.44;7390018;19;20029;-70
2022/08/30 04:58:10;;;;;;;16.42;11.38;;;;;;;14.87;82.86;98518.81;7388277;19;20421;-71
2022/08/30 05:00:36;;;;;;;16.63;11.38;;;;;;;14.86;82.78;98516.34;7390311;19;20029;-72
2022/08/30 05:03:03;;;;;;;14.68;11.60;;;;;;;14.84;83.23;98521.84;7389564;19;20019;-71
2022/08/30 05:05:39;;;;;;;20.70;11.85;;;;;;;14.93;83.11;98525.28;7389542;19;20026;-70
2022/08/30 05:08:07;;;;;;;16.05;12.00;;;;;;;15.15;82.89;98536.91;7384896;19;20015;-71
2022/08/30 05:10:37;;;;;;;18.30;11.40;;;;;;;15.24;82.52;98533.13;7392189;19;20429;-71
2022/08/30 05:13:04;;;;;;;15.18;11.85;;;;;;;15.43;82.13;98536.28;7392285;19;20029;-71
2022/08/30 05:15:31;;;;;;;15.63;11.15;;;;;;;15.43;81.57;98541.59;7389081;19;20020;-71
2022/08/30 05:17:58;;;;;;;14.00;11.23;;;;;;;15.44;81.40;98535.28;7385115;19;20014;-71
2022/08/30 05:20:24;;;;;;;16.02;11.50;;;;;;;15.46;81.37;98541.28;7389407;19;20018;-70
2022/08/30 05:22:51;;;;;;;13.52;11.32;;;;;;;15.46;81.16;98544.75;7387486;19;20370;-72
2022/08/30 05:25:24;;;;;;;16.55;11.20;;;;;;;15.53;81.08;98547.50;7387108;19;20014;-71
2022/08/30 05:27:52;;;;;;;17.23;12.60;;;;;;;15.66;80.84;98544.19;7388589;19;20775;-71
2022/08/30 05:30:19;;;;;;;12.70;10.57;;;;;;;15.86;80.66;98547.19;7390604;19;20012;-71
2022/08/30 05:32:46;;;;;;;19.17;11.05;;;;;;;16.00;79.98;98547.16;7387231;19;20026;-71
2022/08/30 05:35:14;;;;;;;13.73;10.55;;;;;;;16.15;79.48;98546.31;7391046;19;20011;-71
2022/08/30 05:37:41;;;;;;;14.02;10.40;;;;;;;16.32;79.12;98554.91;7386962;19;20017;-71
2022/08/30 05:40:10;;;;;;;16.30;10.13;;;;;;;16.43;78.16;98552.59;7386910;19;20011;-72
2022/08/30 05:42:40;;;;;;;17.40;11.57;;;;;;;16.59;78.07;98548.84;7382720;19;20077;-71
2022/08/30 05:45:07;;;;;;;17.83;10.70;;;;;;;16.76;76.46;98548.59;7385320;19;20481;-71
2022/08/30 05:47:35;;;;;;;12.45;9.50;;;;;;;16.92;76.27;98545.69;7381973;19;20021;-71
2022/08/30 05:50:02;;;;;;;18.42;10.40;;;;;;;17.06;76.46;98534.13;7381873;19;20010;-70
2022/08/30 05:52:29;;;;;;;18.15;10.52;;;;;;;17.19;76.83;98536.03;7387803;19;20015;-71
2022/08/30 05:54:58;;;;;;;16.15;11.00;;;;;;;17.26;77.15;98539.59;7386832;19;20014;-73
2022/08/30 05:57:25;;;;;;;12.48;10.13;;;;;;;17.37;76.05;98542.75;7381300;19;20473;-71
2022/08/30 05:59:52;;;;;;;14.32;9.10;;;;;;;17.48;75.89;98540.38;7388581;19;20014;-72
2022/08/30 06:02:18;;;;;;;13.43;9.93;;;;;;;17.53;75.84;98526.41;7385935;19;20045;-72
2022/08/30 06:04:45;;;;;;;20.75;9.85;;;;;;;17.61;75.04;98528.09;7386742;19;20011;-71
2022/08/30 06:07:12;;;;;;;12.48;8.15;;;;;;;17.70;74.88;98532.28;7386838;19;20545;-71
2022/08/30 06:09:42;;;;;;;14.23;8.27;;;;;;;17.69;74.24;98530.59;7386482;19;20007;-71
2022/08/30 06:12:09;;;;;;;10.50;7.90;;;;;;;17.76;74.95;98531.47;7386112;19;20014;-71
2022/08/30 06:14:37;;;;;;;14.05;8.75;;;;;;;17.78;74.16;98534.78;7384296;19;20477;-71
2022/08/30 06:17:05;;;;;;;11.68;8.23;;;;;;;17.88;74.51;98542.50;7386155;19;20018;-70
2022/08/30 06:19:31;;;;;;;11.77;8.27;;;;;;;17.94;74.67;98545.19;7384615;19;20087;-72
2022/08/30 06:21:59;;;;;;;10.48;7.45;;;;;;;18.01;73.13;98545.22;7387017;19;20017;-71
2022/08/30 06:24:26;;;;;;;11.48;8.20;;;;;;;18.10;73.45;98549.38;7387102;19;20014;-71
2022/08/30 06:27:14;;;;;;;10.60;8.00;;;;;;;18.23;73.17;98551.28;7386036;19;20010;-71
2022/08/30 06:29:40;;;;;;;8.63;7.32;;;;;;;18.41;72.84;98554.22;7382361;19;20018;-71
2022/08/30 06:32:07;;;;;;;10.68;8.25;;;;;;;18.46;72.78;98550.09;7382834;19;20025;-72
2022/08/30 06:34:34;;;;;;;12.13;8.07;;;;;;;18.70;71.27;98549.56;7388477;19;20078;-72
2022/08/30 06:37:01;;;;;;;10.13;7.38;;;;;;;19.03;69.22;98538.88;7386044;19;20078;-72
2022/08/30 06:39:27;;;;;;;10.10;7.95;;;;;;;19.22;67.69;98547.97;7383499;19;20027;-71
2022/08/30 06:41:54;;;;;;;11.93;7.97;;;;;;;19.35;68.86;98541.75;7380033;19;20077;-72
2022/08/30 06:44:31;;;;;;;11.88;7.85;;;;;;;19.64;67.32;98535.13;7384047;19;20017;-71
2022/08/30 06:46:58;;;;;;;7.82;6.80;;;;;;;19.86;66.85;98537.56;7380804;19;20024;-71
2022/08/30 06:49:25;;;;;;;13.45;7.43;;;;;;;19.82;66.73;98537.16;7378661;19;20018;-71
2022/08/30 06:51:52;;;;;;;10.65;6.72;;;;;;;19.91;65.81;98540.44;7385392;19;20020;-73
2022/08/30 06:54:19;;;;;;;12.23;7.68;;;;;;;19.82;66.86;98536.31;7384781;19;20015;-71
2022/08/30 06:56:45;;;;;;;10.00;6.93;;;;;;;19.84;64.46;98532.41;7385613;19;20485;-71
2022/08/30 06:59:25;;;;;;;12.50;6.90;;;;;;;20.07;66.01;98536.47;7384999;19;20010;-72
2022/08/30 07:01:52;;;;;;;8.25;6.97;;;;;;;20.20;63.39;98533.72;7382876;19;20015;-72
2022/08/30 07:04:19;;;;;;;10.95;7.18;;;;;;;20.30;64.25;98533.22;7382158;19;20026;-72
2022/08/30 07:06:46;;;;;;;10.85;7.82;;;;;;;20.31;65.08;98534.91;7385121;19;20118;-72
2022/08/30 07:09:13;;;;;;;8.35;7.00;;;;;;;20.18;64.35;98531.22;7384480;19;20018;-71
2022/08/30 07:11:39;;;;;;;9.73;6.32;;;;;;;20.36;63.00;98532.41;7388083;19;20014;-71
2022/08/30 07:14:06;;;;;;;11.45;6.50;;;;;;;20.53;63.77;98525.47;7381728;19;20024;-71
2022/08/30 07:16:33;;;;;;;8.30;6.72;;;;;;;20.60;63.58;98525.47;7381892;19;20026;-72
2022/08/30 07:19:01;;;;;;;7.63;6.53;;;;;;;20.61;61.67;98535.97;7383100;19;20025;-71
2022/08/30 07:21:32;;;;;;;8.43;6.45;;;;;;;20.65;63.46;98532.88;7381586;19;20023;-72
2022/08/30 07:23:59;;;;;;;11.80;6.60;;;;;;;20.72;61.73;98528.25;7381147;19;20030;-73
2022/08/30 07:26:31;;;;;;;9.85;6.65;;;;;;;20.68;64.64;98532.44;7386824;19;20015;-71
2022/08/30 07:28:58;;;;;;;9.35;5.97;;;;;;;20.75;64.35;98541.28;7381933;19;20014;-73
2022/08/30 07:31:25;;;;;;;8.07;6.40;;;;;;;21.00;63.24;98541.31;7387044;19;20007;-71
2022/08/30 07:33:53;;;;;;;8.43;6.78;;;;;;;21.20;60.00;98543.84;7386759;19;20011;-71
2022/08/30 07:36:20;;;;;;;8.13;5.85;;;;;;;21.33;63.17;98541.03;7382879;19;20015;-71
2022/08/30 07:38:49;;;;;;;9.35;5.93;;;;;;;21.54;63.22;98547.91;7381633;19;20319;-71
2022/08/30 07:41:28;;;;;;;8.95;6.97;;;;;;;21.68;62.71;98543.22;7381449;19;20023;-72
2022/08/30 07:43:56;;;;;;;11.38;7.13;;;;;;;22.02;60.81;98535.59;7382319;19;20022;-72
2022/08/30 07:46:23;;;;;;;9.18;6.30;;;;;;;22.24;59.79;98538.66;7385633;19;20011;-72
2022/08/30 07:48:53;;;;;;;8.90;6.32;;;;;;;22.50;56.39;98537.47;7384671;19;20015;-73
2022/08/30 07:51:22;;;;;;;8.98;5.97;;;;;;;22.74;58.48;98541.06;7380613;19;20022;-71
2022/08/30 07:53:49;;;;;;;7.47;6.60;;;;;;;22.89;59.77;98541.47;7381008;19;20014;-72
2022/08/30 07:56:15;;;;;;;12.80;6.35;;;;;;;23.06;57.35;98552.41;7384589;19;20023;-72
2022/08/30 07:58:42;;;;;;;9.32;6.38;;;;;;;22.75;57.41;98543.53;7390752;19;20014;-71
2022/08/30 08:01:11;;;;;;;9.48;5.93;;;;;;;22.75;56.58;98540.84;7393544;19;20010;-71
2022/08/30 08:03:40;;;;;;;7.95;6.03;;;;;;;22.64;59.89;98540.78;7391420;19;20010;-71
2022/08/30 08:06:09;;;;;;;9.32;6.13;;;;;;;22.71;58.93;98539.66;7391206;19;20018;-71
2022/08/30 08:08:38;;;;;;;10.38;6.30;;;;;;;22.98;55.66;98540.09;7386603;19;20014;-71
2022/08/30 08:11:17;;;;;;;9.43;6.13;;;;;;;23.08;57.62;98531.44;7388752;19;20021;-72
2022/08/30 08:13:45;;;;;;;7.18;6.18;;;;;;;23.15;55.45;98529.44;7388449;19;20014;-71
2022/08/30 08:16:22;;;;;;;10.45;5.75;;;;;;;23.13;55.25;98530.75;7389395;19;20058;-71
2022/08/30 08:18:50;;;;;;;9.15;6.35;;;;;;;23.14;54.85;98532.38;7393765;19;20378;-72
2022/08/30 08:21:16;;;;;;;9.25;5.88;;;;;;;23.41;55.12;98533.56;7392414;19;20021;-72
2022/08/30 08:23:43;;;;;;;10.13;6.68;;;;;;;23.49;54.06;98534.28;7389152;19;20478;-71
2022/08/30 08:26:10;;;;;;;8.18;6.30;;;;;;;23.65;54.83;98534.38;7387891;19;20010;-71
2022/08/30 08:28:37;;;;;;;6.32;5.72;;;;;;;23.85;52.74;98538.59;7388540;19;20723;-71
2022/08/30 08:31:16;;;;;;;9.77;6.18;;;;;;;24.21;51.83;98528.53;7386853;19;20013;-71
2022/08/30 08:33:43;;;;;;;10.80;6.22;;;;;;;24.67;50.22;98537.53;7388462;19;20018;-72
2022/08/30 08:36:10;;;;;;;11.20;6.28;;;;;;;24.83;53.32;98542.16;7391100;19;20057;-72
2022/08/30 08:38:37;;;;;;;8.10;6.18;;;;;;;24.58;51.92;98539.00;7379491;19;20417;-72
2022/08/30 08:41:16;;;;;;;7.82;5.57;;;;;;;24.77;53.35;98537.72;7388046;19;20539;-73
2022/08/30 08:43:43;;;;;;;7.57;5.70;;;;;;;25.03;51.66;98532.75;7383350;19;20014;-72
2022/08/30 08:46:48;;;;;;;7.78;5.78;;;;;;;24.90;52.11;98529.28;7387024;19;20742;-71
2022/08/30 08:49:15;;;;;;;11.70;5.55;;;;;;;25.37;51.73;98526.28;7387022;19;20007;-71
2022/08/30 08:54:57;;;;;;;8.95;5.75;;;;;;;25.63;49.21;98519.34;7386871;19;20018;-71
2022/08/30 08:57:25;;;;;;;6.57;5.35;;;;;;;25.73;47.57;98521.38;7384305;19;20359;-72
2022/08/30 08:59:53;;;;;;;11.57;5.57;;;;;;;25.86;47.00;98527.50;7384236;19;20118;-72
2022/08/30 09:02:38;;;;;;;11.50;5.53;;;;;;;25.89;50.56;98518.91;7383320;19;20024;-71
2022/08/30 09:05:05;;;;;;;9.48;5.38;;;;;;;25.92;50.38;98510.25;7387171;19;20022;-72
2022/08/30 09:07:36;;;;;;;7.47;5.50;;;;;;;26.06;47.36;98508.78;7384469;19;21787;-72
2022/08/30 09:10:03;;;;;;;5.78;4.93;;;;;;;26.01;47.19;98506.84;7385483;19;20667;-73
2022/08/30 09:12:30;;;;;;;7.95;5.78;;;;;;;25.90;48.62;98504.25;7390081;19;20106;-71
2022/08/30 09:15:08;;;;;;;7.25;5.47;;;;;;;25.75;52.78;98511.09;7389222;19;20370;-72
2022/08/30 09:17:55;;;;;;;6.35;4.90;;;;;;;25.61;52.56;98507.09;7381044;19;20019;-73
2022/08/30 09:20:42;;;;;;;5.65;5.15;;;;;;;25.72;47.46;98508.06;7389945;19;20105;-71
2022/08/30 09:23:20;;;;;;;7.10;4.55;;;;;;;25.92;50.58;98502.13;7388323;19;20019;-73
2022/08/30 09:25:53;;;;;;;7.55;5.15;;;;;;;25.79;50.26;98508.69;7387459;19;20013;-71
2022/08/30 09:28:23;;;;;;;6.55;4.57;;;;;;;25.58;50.77;98508.44;7385124;19;20022;-72
2022/08/30 09:31:00;;;;;;;7.22;5.22;;;;;;;25.47;49.94;98500.41;7388032;19;20018;-72
2022/08/30 09:33:27;;;;;;;9.32;5.63;;;;;;;25.49;50.33;98499.09;7381595;19;20022;-72
2022/08/30 09:35:55;;;;;;;6.93;5.40;;;;;;;25.45;52.46;98492.53;7383619;19;20074;-72
2022/08/30 09:38:25;;;;;;;6.47;5.22;;;;;;;25.32;52.02;98488.28;7382773;19;20795;-72
2022/08/30 09:40:57;;;;;;;6.57;5.30;;;;;;;25.42;51.75;98484.09;7386104;19;20018;-72
2022/08/30 09:43:30;;;;;;;6.57;5.00;;;;;;;25.83;49.86;98480.84;7384243;19;20758;-72
2022/08/30 09:46:00;;;;;;;7.78;5.28;;;;;;;25.82;49.91;98476.50;7388888;19;20030;-74
2022/08/30 09:48:32;;;;;;;9.98;5.35;;;;;;;25.95;50.05;98475.31;7383410;19;20506;-72
2022/08/30 09:51:09;;;;;;;7.35;5.75;;;;;;;26.19;48.55;98477.75;7384520;19;20014;-71
2022/08/30 09:53:46;;;;;;;5.47;5.00;;;;;;;26.36;48.35;98475.78;7385836;19;20010;-73
2022/08/30 09:56:42;;;;;;;5.40;4.90;;;;;;;26.10;48.38;98471.97;7386670;19;20019;-73
2022/08/30 09:59:36;;;;;;;6.13;5.53;;;;;;;26.04;50.66;98468.41;7386575;19;20742;-71
2022/08/30 10:02:27;;;;;;;8.73;5.60;;;;;;;25.86;49.65;98467.88;7387963;19;20015;-74
2022/08/30 10:05:18;;;;;;;7.18;5.45;;;;;;;25.66;50.64;98466.53;7387189;19;20530;-73
2022/08/30 10:08:11;;;;;;;7.50;5.43;;;;;;;25.79;50.06;98462.63;7382291;19;20090;-73
2022/08/30 10:10:56;;;;;;;7.75;5.65;;;;;;;25.65;49.33;98464.09;7385558;19;20375;-73
2022/08/30 10:13:43;;;;;;;6.95;5.43;;;;;;;25.63;48.94;98464.34;7386214;19;20006;-70
2022/08/30 10:16:29;;;;;;;8.88;5.50;;;;;;;25.65;49.25;98456.78;7387833;19;20014;-74
2022/08/30 10:19:04;;;;;;;6.95;5.47;;;;;;;25.71;49.26;98452.25;7388030;19;20014;-73
2022/08/30 10:21:41;;;;;;;7.85;5.30;;;;;;;25.93;47.63;98446.84;7384989;19;20419;-72
2022/08/30 10:24:14;;;;;;;6.35;4.72;;;;;;;25.82;47.21;98441.25;7382084;19;20070;-74
2022/08/30 10:26:47;;;;;;;5.60;4.78;;;;;;;26.06;45.24;98446.44;7383557;19;20029;-73
2022/08/30 10:29:27;;;;;;;6.72;5.00;;;;;;;26.03;47.66;98433.41;7385128;19;20775;-74
2022/08/30 10:32:03;;;;;;;4.97;4.47;;;;;;;26.35;46.39;98432.63;7384389;19;20089;-72
2022/08/30 10:34:35;;;;;;;5.78;4.70;;;;;;;26.35;47.51;98432.63;7388086;19;20011;-73
2022/08/30 10:37:24;;;;;;;7.45;4.78;;;;;;;26.17;47.87;98426.50;7384604;19;20682;-70
2022/08/30 10:39:59;;;;;;;5.80;5.20;;;;;;;26.42;47.48;98423.22;7384015;19;20015;-73
2022/08/30 10:42:31;;;;;;;5.00;4.60;;;;;;;26.38;47.56;98424.78;7384018;19;20010;-73
2022/08/30 10:45:10;;;;;;;6.13;4.88;;;;;;;26.47;47.27;98428.69;7384662;19;20011;-72
2022/08/30 10:47:47;;;;;;;5.72;4.63;;;;;;;26.67;45.07;98421.81;7382252;19;20022;-72
2022/08/30 10:50:20;;;;;;;5.90;4.60;;;;;;;26.46;45.50;98420.78;7387026;19;20017;-73
2022/08/30 10:52:58;;;;;;;4.93;4.50;;;;;;;26.43;45.56;98426.72;7386933;19;20017;-73
2022/08/30 10:55:27;;;;;;;5.65;4.43;;;;;;;26.73;40.54;98418.06;7382810;19;20015;-73
2022/08/30 10:57:59;;;;;;;4.80;4.30;;;;;;;26.81;45.67;98422.22;7380651;19;20071;-73
2022/08/30 11:00:35;;;;;;;5.18;4.60;;;;;;;26.99;45.83;98418.25;7384583;19;20019;-73
2022/08/30 11:03:13;;;;;;;5.97;4.57;;;;;;;27.09;44.98;98418.31;7382889;19;20014;-72
2022/08/30 11:05:51;;;;;;;6.38;4.90;;;;;;;27.31;40.92;98412.78;7382481;19;20709;-73
2022/08/30 11:08:45;;;;;;;6.40;4.70;;;;;;;27.26;43.50;98418.19;7381924;19;20015;-73
2022/08/30 11:11:15;;;;;;;5.60;4.78;;;;;;;27.08;44.79;98419.41;7385867;19;20017;-73
2022/08/30 11:13:42;;;;;;;4.55;4.15;;;;;;;26.83;43.32;98406.47;7380806;19;20085;-74
2022/08/30 11:16:14;;;;;;;7.00;5.05;;;;;;;26.85;42.95;98404.31;7385240;19;20032;-73
2022/08/30 11:18:48;;;;;;;;;;;;;;;26.99;39.21;98410.94;7386865;19;20544;-71
2022/08/30 11:21:32;;;;;;;5.05;4.57;;;;;;;27.17;40.40;98406.13;7386202;19;19939;-73
2022/08/30 11:24:08;;;;;;;7.73;4.70;;;;;;;27.14;44.27;98407.47;7384199;19;20628;-73
2022/08/30 11:26:49;;;;;;;5.15;4.60;;;;;;;26.97;45.26;98404.13;7384024;19;20561;-72
2022/08/30 11:29:28;;;;;;;6.63;4.75;;;;;;;26.91;45.34;98411.44;7385157;19;20015;-73
2022/08/30 11:32:12;;;;;;;6.43;4.97;;;;;;;27.05;43.23;98400.91;7390177;19;20074;-73
2022/08/30 11:34:48;;;;;;;7.18;4.90;;;;;;;27.34;40.63;98409.53;7393165;19;20102;-74
2022/08/30 11:37:38;;;;;;;6.95;4.65;;;;;;;27.72;42.24;98400.16;7389918;19;20018;-73
2022/08/30 11:40:23;;;;;;;6.18;5.22;;;;;;;27.58;43.95;98402.56;7395229;19;20662;-73
2022/08/30 11:42:53;;;;;;;6.20;5.13;;;;;;;27.64;41.77;98405.31;7391424;19;20038;-73
2022/08/30 11:45:22;;;;;;;5.13;4.63;;;;;;;27.86;38.08;98408.69;7391935;19;20037;-72
2022/08/30 11:48:00;;;;;;;4.95;4.22;;;;;;;27.95;42.05;98406.25;7386219;19;20031;-73